BTI17CX GCLP-EPKT
Flight info
| Callsign | BTI17CX |
|---|---|
| Flight time | N/A |
| Altitude | 36000 |
| Route | KORAL UG5 SONSO UN871 NIRAL/N0444F380 UN871 OSDAM UM985 BARPA M985 PIMOS M445 SOPET M985 BCN N870 DIBER UN870 SOSUR DCT NOSTA DCT ROBAS DCT DETSA/N0441F390 DCT LADAG DCT LANUX DCT BAVOK |
| Aircraft | B38M/M-SDE1FGHILORVWXY/HB1 |
Departure
| Time | N/A |
|---|---|
| Airport | Gran Canaria Airport (GCLP) |
Arrival
| Time | 2026-05-05 19:56 |
|---|---|
| Airport | Katowice Wojciech Korfanty International Airport (EPKT) |
| Time | Latitude | Longitude | Altitude | Speed | Heading |
|---|---|---|---|---|---|
| 2026-05-05 11:06 | 28.36253 | -14.91813 | 13102 ft | 383 kts | 56° |
| 2026-05-05 11:06 | 28.37726 | -14.89275 | 13636 ft | 388 kts | 55° |
| 2026-05-05 11:07 | 28.39223 | -14.86693 | 14147 ft | 394 kts | 55° |
| 2026-05-05 11:07 | 28.40740 | -14.84075 | 14638 ft | 399 kts | 55° |
| 2026-05-05 11:07 | 28.42273 | -14.81429 | 15139 ft | 403 kts | 55° |
| 2026-05-05 11:07 | 28.43823 | -14.78753 | 15657 ft | 408 kts | 55° |
| 2026-05-05 11:08 | 28.45386 | -14.76049 | 16176 ft | 412 kts | 55° |
| 2026-05-05 11:08 | 28.46969 | -14.73312 | 16674 ft | 416 kts | 55° |
| 2026-05-05 11:08 | 28.48565 | -14.70550 | 17178 ft | 420 kts | 55° |
| 2026-05-05 11:08 | 28.50174 | -14.67764 | 17674 ft | 424 kts | 55° |
| 2026-05-05 11:09 | 28.51803 | -14.64941 | 18158 ft | 428 kts | 55° |
| 2026-05-05 11:09 | 28.53447 | -14.62089 | 18605 ft | 432 kts | 55° |
| 2026-05-05 11:09 | 28.55103 | -14.59214 | 19013 ft | 437 kts | 55° |
| 2026-05-05 11:09 | 28.56774 | -14.56314 | 19418 ft | 441 kts | 56° |
| 2026-05-05 11:10 | 28.58464 | -14.53376 | 19833 ft | 445 kts | 56° |
| 2026-05-05 11:10 | 28.60163 | -14.50421 | 20243 ft | 449 kts | 56° |
| 2026-05-05 11:10 | 28.61860 | -14.47468 | 20648 ft | 452 kts | 56° |
| 2026-05-05 11:10 | 28.63586 | -14.44462 | 21047 ft | 456 kts | 56° |
| 2026-05-05 11:11 | 28.65330 | -14.41423 | 21446 ft | 460 kts | 56° |
| 2026-05-05 11:11 | 28.67084 | -14.38364 | 21854 ft | 464 kts | 56° |
| 2026-05-05 11:11 | 28.68853 | -14.35276 | 22254 ft | 467 kts | 56° |
| 2026-05-05 11:11 | 28.70635 | -14.32164 | 22648 ft | 471 kts | 56° |
| 2026-05-05 11:12 | 28.72432 | -14.29023 | 23046 ft | 474 kts | 56° |
| 2026-05-05 11:12 | 28.74240 | -14.25861 | 23439 ft | 478 kts | 56° |
| 2026-05-05 11:12 | 28.76060 | -14.22675 | 23796 ft | 481 kts | 56° |
| 2026-05-05 11:12 | 28.77893 | -14.19465 | 24117 ft | 484 kts | 56° |
| 2026-05-05 11:13 | 28.79739 | -14.16227 | 24470 ft | 488 kts | 56° |
| 2026-05-05 11:13 | 28.81594 | -14.12974 | 24783 ft | 491 kts | 56° |
| 2026-05-05 11:13 | 28.82830 | -14.10804 | 24998 ft | 493 kts | 56° |
| 2026-05-05 11:13 | 28.84706 | -14.07508 | 25321 ft | 496 kts | 56° |
| 2026-05-05 11:14 | 28.86588 | -14.04199 | 25645 ft | 499 kts | 56° |
| 2026-05-05 11:14 | 28.88484 | -14.00862 | 25952 ft | 502 kts | 56° |
| 2026-05-05 11:14 | 28.90390 | -13.97505 | 26280 ft | 505 kts | 56° |
| 2026-05-05 11:14 | 28.92307 | -13.94127 | 26602 ft | 507 kts | 56° |
| 2026-05-05 11:15 | 28.94228 | -13.90739 | 26921 ft | 510 kts | 56° |
| 2026-05-05 11:15 | 28.96158 | -13.87331 | 27230 ft | 513 kts | 56° |
| 2026-05-05 11:15 | 28.98101 | -13.83899 | 27534 ft | 515 kts | 55° |
| 2026-05-05 11:15 | 29.00047 | -13.80459 | 27863 ft | 517 kts | 55° |
| 2026-05-05 11:16 | 29.02000 | -13.77003 | 28183 ft | 520 kts | 55° |
| 2026-05-05 11:16 | 29.03971 | -13.73511 | 28500 ft | 522 kts | 55° |
| 2026-05-05 11:16 | 29.05945 | -13.70012 | 28797 ft | 524 kts | 55° |
| 2026-05-05 11:16 | 29.07901 | -13.66542 | 29107 ft | 527 kts | 55° |
| 2026-05-05 11:17 | 29.09891 | -13.63008 | 29410 ft | 529 kts | 55° |
| 2026-05-05 11:17 | 29.11886 | -13.59463 | 29701 ft | 531 kts | 55° |
| 2026-05-05 11:17 | 29.13892 | -13.55895 | 30016 ft | 534 kts | 55° |
| 2026-05-05 11:17 | 29.15905 | -13.52311 | 30255 ft | 537 kts | 55° |
| 2026-05-05 11:18 | 29.18014 | -13.48781 | 30481 ft | 538 kts | 52° |
| 2026-05-05 11:18 | 29.20176 | -13.45264 | 30679 ft | 540 kts | 52° |
| 2026-05-05 11:18 | 29.22325 | -13.41724 | 30903 ft | 542 kts | 52° |
| 2026-05-05 11:18 | 29.24485 | -13.38180 | 31140 ft | 544 kts | 52° |
| 2026-05-05 11:19 | 29.26670 | -13.34621 | 31374 ft | 546 kts | 52° |
| 2026-05-05 11:19 | 29.28862 | -13.31043 | 31604 ft | 548 kts | 52° |
| 2026-05-05 11:19 | 29.31047 | -13.27454 | 31850 ft | 550 kts | 52° |
| 2026-05-05 11:19 | 29.33239 | -13.23847 | 32083 ft | 552 kts | 52° |
| 2026-05-05 11:20 | 29.35371 | -13.20350 | 32299 ft | 554 kts | 52° |
| 2026-05-05 11:20 | 29.37561 | -13.16755 | 32288 ft | 542 kts | 52° |
| 2026-05-05 11:20 | 29.39698 | -13.13235 | 32243 ft | 534 kts | 52° |
| 2026-05-05 11:21 | 29.43984 | -13.06186 | 32248 ft | 547 kts | 52° |
| 2026-05-05 11:21 | 29.48388 | -12.98918 | 32320 ft | 562 kts | 52° |
| 2026-05-05 11:22 | 29.52899 | -12.91462 | 32360 ft | 576 kts | 52° |
| 2026-05-05 11:22 | 29.57524 | -12.83804 | 32394 ft | 589 kts | 53° |
| 2026-05-05 11:23 | 29.62215 | -12.76018 | 32408 ft | 593 kts | 52° |
| 2026-05-05 11:23 | 29.66905 | -12.68225 | 32421 ft | 591 kts | 52° |
| 2026-05-05 11:24 | 29.71581 | -12.60439 | 32428 ft | 592 kts | 53° |
| 2026-05-05 11:24 | 29.76245 | -12.52624 | 32434 ft | 592 kts | 53° |
| 2026-05-05 11:25 | 29.80858 | -12.44784 | 32478 ft | 592 kts | 53° |
| 2026-05-05 11:25 | 29.85465 | -12.37010 | 32460 ft | 591 kts | 53° |
| 2026-05-05 11:26 | 29.90076 | -12.29167 | 32507 ft | 589 kts | 53° |
| 2026-05-05 11:26 | 29.92365 | -12.25280 | 33095 ft | 583 kts | 53° |
| 2026-05-05 11:26 | 29.94636 | -12.21423 | 33682 ft | 576 kts | 53° |
| 2026-05-05 11:26 | 29.96865 | -12.17625 | 34407 ft | 567 kts | 53° |
| 2026-05-05 11:27 | 29.99042 | -12.13912 | 34929 ft | 560 kts | 52° |
| 2026-05-05 11:27 | 30.01212 | -12.10212 | 35376 ft | 555 kts | 52° |
| 2026-05-05 11:27 | 30.03376 | -12.06537 | 35748 ft | 552 kts | 52° |
| 2026-05-05 11:27 | 30.05550 | -12.02885 | 36019 ft | 550 kts | 51° |
| 2026-05-05 11:28 | 30.07717 | -11.99240 | 36054 ft | 549 kts | 52° |
| 2026-05-05 11:28 | 30.11976 | -11.92006 | 36067 ft | 547 kts | 52° |
| 2026-05-05 11:29 | 30.16289 | -11.84703 | 36064 ft | 547 kts | 52° |
| 2026-05-05 11:29 | 30.20535 | -11.77482 | 36062 ft | 547 kts | 52° |
| 2026-05-05 11:30 | 30.24815 | -11.70199 | 36058 ft | 547 kts | 52° |
| 2026-05-05 11:30 | 30.29090 | -11.62908 | 36061 ft | 547 kts | 52° |
| 2026-05-05 11:31 | 30.33359 | -11.55614 | 36059 ft | 547 kts | 52° |
| 2026-05-05 11:31 | 30.37627 | -11.48310 | 36061 ft | 547 kts | 52° |
| 2026-05-05 11:32 | 30.41893 | -11.40993 | 36062 ft | 548 kts | 52° |
| 2026-05-05 11:32 | 30.46153 | -11.33676 | 36080 ft | 548 kts | 52° |
| 2026-05-05 11:33 | 30.50414 | -11.26341 | 36064 ft | 548 kts | 52° |
| 2026-05-05 11:33 | 30.54672 | -11.19001 | 36058 ft | 548 kts | 52° |
| 2026-05-05 11:34 | 30.58919 | -11.11665 | 36058 ft | 548 kts | 52° |
| 2026-05-05 11:34 | 30.63138 | -11.04364 | 36051 ft | 548 kts | 52° |
| 2026-05-05 11:35 | 30.67381 | -10.97006 | 36047 ft | 548 kts | 52° |
| 2026-05-05 11:35 | 30.71615 | -10.89652 | 36045 ft | 547 kts | 52° |
| 2026-05-05 11:36 | 30.75841 | -10.82297 | 36046 ft | 547 kts | 52° |
| 2026-05-05 11:36 | 30.80067 | -10.74931 | 36070 ft | 547 kts | 52° |
| 2026-05-05 11:37 | 30.84288 | -10.67557 | 36045 ft | 547 kts | 52° |
| 2026-05-05 11:37 | 30.88507 | -10.60175 | 36049 ft | 547 kts | 52° |
| 2026-05-05 11:38 | 30.92727 | -10.52774 | 36057 ft | 547 kts | 52° |
| 2026-05-05 11:38 | 30.96912 | -10.45425 | 36053 ft | 547 kts | 52° |
| 2026-05-05 11:39 | 31.01138 | -10.37986 | 36051 ft | 547 kts | 52° |
| 2026-05-05 11:39 | 31.05305 | -10.30639 | 36040 ft | 547 kts | 52° |
| 2026-05-05 11:40 | 31.09495 | -10.23238 | 36038 ft | 547 kts | 53° |
| 2026-05-05 11:40 | 31.13683 | -10.15825 | 36039 ft | 546 kts | 52° |
| 2026-05-05 11:41 | 31.17860 | -10.08418 | 36035 ft | 546 kts | 52° |
| 2026-05-05 11:41 | 31.22030 | -10.01010 | 36036 ft | 546 kts | 53° |
| 2026-05-05 11:42 | 31.26205 | -9.93579 | 36035 ft | 546 kts | 53° |
| 2026-05-05 11:42 | 31.30367 | -9.86156 | 36040 ft | 546 kts | 53° |
| 2026-05-05 11:43 | 31.34507 | -9.78759 | 36059 ft | 545 kts | 53° |
| 2026-05-05 11:43 | 31.38739 | -9.71395 | 36062 ft | 541 kts | 44° |
| 2026-05-05 11:43 | 31.41320 | -9.68251 | 36067 ft | 531 kts | 32° |
| 2026-05-05 11:44 | 31.44253 | -9.65720 | 36094 ft | 519 kts | 23° |
| 2026-05-05 11:44 | 31.50389 | -9.61303 | 36050 ft | 517 kts | 22° |
| 2026-05-05 11:45 | 31.56523 | -9.56881 | 36047 ft | 518 kts | 23° |
| 2026-05-05 11:45 | 31.62656 | -9.52442 | 36042 ft | 517 kts | 22° |
| 2026-05-05 11:46 | 31.68749 | -9.48039 | 36036 ft | 517 kts | 23° |
| 2026-05-05 11:46 | 31.74835 | -9.43620 | 36032 ft | 515 kts | 23° |
| 2026-05-05 11:47 | 31.80856 | -9.39251 | 36032 ft | 511 kts | 22° |
| 2026-05-05 11:47 | 31.86934 | -9.34835 | 36043 ft | 513 kts | 23° |
| 2026-05-05 11:48 | 31.96046 | -9.28195 | 36049 ft | 513 kts | 23° |
| 2026-05-05 11:48 | 32.02079 | -9.23787 | 36071 ft | 514 kts | 24° |
| 2026-05-05 11:49 | 32.08129 | -9.19362 | 36052 ft | 510 kts | 24° |
| 2026-05-05 11:49 | 32.14151 | -9.14955 | 36049 ft | 509 kts | 24° |
| 2026-05-05 11:50 | 32.20175 | -9.10534 | 36055 ft | 509 kts | 24° |
| 2026-05-05 11:50 | 32.26188 | -9.06117 | 36047 ft | 508 kts | 24° |
| 2026-05-05 11:51 | 32.32195 | -9.01696 | 36060 ft | 507 kts | 24° |
| 2026-05-05 11:51 | 32.38172 | -8.97291 | 36061 ft | 505 kts | 24° |
| 2026-05-05 11:52 | 32.44139 | -8.92888 | 36069 ft | 505 kts | 24° |
| 2026-05-05 11:52 | 32.50057 | -8.88511 | 36069 ft | 505 kts | 24° |
| 2026-05-05 11:53 | 32.56025 | -8.84093 | 36071 ft | 505 kts | 24° |
| 2026-05-05 11:53 | 32.61979 | -8.79676 | 36072 ft | 505 kts | 24° |
| 2026-05-05 11:54 | 32.67952 | -8.75239 | 36078 ft | 506 kts | 25° |
| 2026-05-05 11:54 | 32.73921 | -8.70798 | 36069 ft | 506 kts | 25° |
| 2026-05-05 11:55 | 32.79873 | -8.66361 | 36073 ft | 504 kts | 25° |
| 2026-05-05 11:55 | 32.85816 | -8.61927 | 36067 ft | 504 kts | 25° |
| 2026-05-05 11:56 | 32.91699 | -8.57526 | 36068 ft | 501 kts | 25° |
| 2026-05-05 11:56 | 32.97604 | -8.53107 | 36070 ft | 501 kts | 25° |
| 2026-05-05 11:57 | 33.03500 | -8.48683 | 36071 ft | 501 kts | 25° |
| 2026-05-05 11:57 | 33.09393 | -8.44256 | 36074 ft | 501 kts | 25° |
| 2026-05-05 11:58 | 33.15298 | -8.39814 | 36066 ft | 501 kts | 25° |
| 2026-05-05 11:58 | 33.20483 | -8.35906 | 36076 ft | 501 kts | 25° |
| 2026-05-05 16:30 | 33.26156 | -8.31643 | 36074 ft | 500 kts | 25° |
| 2026-05-05 16:31 | 33.32007 | -8.27240 | 36073 ft | 498 kts | 25° |
| 2026-05-05 16:31 | 33.37859 | -8.22825 | 36078 ft | 503 kts | 25° |
| 2026-05-05 16:32 | 33.43828 | -8.18319 | 36071 ft | 503 kts | 27° |
| 2026-05-05 16:32 | 33.46745 | -8.16095 | 36064 ft | 492 kts | 27° |
| 2026-05-05 16:32 | 33.49633 | -8.13915 | 36067 ft | 492 kts | 26° |
| 2026-05-05 16:33 | 33.55493 | -8.09491 | 36089 ft | 498 kts | 27° |
| 2026-05-05 16:33 | 33.61328 | -8.05045 | 36081 ft | 495 kts | 26° |
| 2026-05-05 16:34 | 33.67166 | -8.00619 | 36084 ft | 497 kts | 27° |
| 2026-05-05 16:34 | 33.72956 | -7.96200 | 36082 ft | 490 kts | 28° |
| 2026-05-05 16:35 | 33.78683 | -7.91838 | 36082 ft | 491 kts | 28° |
| 2026-05-05 16:35 | 33.84477 | -7.87408 | 36086 ft | 491 kts | 28° |
| 2026-05-05 16:36 | 33.90240 | -7.82997 | 36090 ft | 490 kts | 28° |
| 2026-05-05 16:36 | 33.96010 | -7.78577 | 36093 ft | 492 kts | 28° |
| 2026-05-05 16:37 | 34.01722 | -7.74186 | 36090 ft | 485 kts | 29° |
| 2026-05-05 16:37 | 34.07432 | -7.69802 | 36093 ft | 490 kts | 29° |
| 2026-05-05 16:38 | 34.13160 | -7.65384 | 36096 ft | 487 kts | 29° |
| 2026-05-05 16:38 | 34.18880 | -7.60974 | 36096 ft | 488 kts | 29° |
| 2026-05-05 16:39 | 34.24601 | -7.56551 | 36111 ft | 488 kts | 28° |
| 2026-05-05 16:39 | 34.30303 | -7.52137 | 36090 ft | 484 kts | 29° |
| 2026-05-05 16:40 | 34.35990 | -7.47730 | 36102 ft | 487 kts | 29° |
| 2026-05-05 16:40 | 34.41694 | -7.43298 | 36097 ft | 486 kts | 29° |
| 2026-05-05 16:41 | 34.47355 | -7.38896 | 36091 ft | 487 kts | 29° |
| 2026-05-05 16:41 | 34.53056 | -7.34453 | 36082 ft | 487 kts | 29° |
| 2026-05-05 16:42 | 34.58747 | -7.30012 | 36083 ft | 485 kts | 29° |
| 2026-05-05 16:42 | 34.64431 | -7.25569 | 36083 ft | 485 kts | 29° |
| 2026-05-05 16:43 | 34.69148 | -7.21875 | 36083 ft | 486 kts | 29° |
| 2026-05-05 16:43 | 34.74844 | -7.17410 | 36086 ft | 487 kts | 29° |
| 2026-05-05 16:44 | 34.80540 | -7.12935 | 36092 ft | 487 kts | 29° |
| 2026-05-05 16:44 | 34.86205 | -7.08478 | 36092 ft | 485 kts | 29° |
| 2026-05-05 16:45 | 34.91893 | -7.03997 | 36095 ft | 486 kts | 29° |
| 2026-05-05 16:45 | 34.97572 | -6.99513 | 36096 ft | 486 kts | 29° |
| 2026-05-05 16:46 | 35.03213 | -6.95054 | 36091 ft | 486 kts | 29° |
| 2026-05-05 16:46 | 35.08900 | -6.90549 | 36090 ft | 486 kts | 29° |
| 2026-05-05 16:47 | 35.14559 | -6.86060 | 36089 ft | 485 kts | 29° |
| 2026-05-05 16:47 | 35.20214 | -6.81567 | 36083 ft | 486 kts | 29° |
| 2026-05-05 16:48 | 35.25886 | -6.77051 | 36085 ft | 486 kts | 29° |
| 2026-05-05 16:48 | 35.31553 | -6.72520 | 36109 ft | 487 kts | 32° |
| 2026-05-05 16:49 | 35.34155 | -6.69810 | 36101 ft | 494 kts | 44° |
| 2026-05-05 16:49 | 35.36292 | -6.66504 | 36093 ft | 499 kts | 57° |
| 2026-05-05 16:49 | 35.39816 | -6.59164 | 36077 ft | 499 kts | 58° |
| 2026-05-05 16:50 | 35.43286 | -6.51856 | 36074 ft | 499 kts | 58° |
| 2026-05-05 16:50 | 35.46916 | -6.44610 | 36068 ft | 499 kts | 57° |
| 2026-05-05 16:51 | 35.50549 | -6.37349 | 36065 ft | 499 kts | 56° |
| 2026-05-05 16:51 | 35.54236 | -6.30117 | 36072 ft | 499 kts | 56° |
| 2026-05-05 16:52 | 35.57887 | -6.22854 | 36061 ft | 500 kts | 56° |
| 2026-05-05 16:52 | 35.61553 | -6.15592 | 36054 ft | 501 kts | 56° |
| 2026-05-05 16:53 | 35.65220 | -6.08289 | 36047 ft | 502 kts | 56° |
| 2026-05-05 16:53 | 35.68867 | -6.01021 | 36049 ft | 502 kts | 56° |
| 2026-05-05 16:54 | 35.72531 | -5.93703 | 36050 ft | 503 kts | 57° |
| 2026-05-05 16:54 | 35.75752 | -5.86056 | 36054 ft | 504 kts | 63° |
| 2026-05-05 16:55 | 35.78777 | -5.78264 | 36053 ft | 503 kts | 63° |
| 2026-05-05 16:55 | 35.81838 | -5.70519 | 36043 ft | 503 kts | 63° |
| 2026-05-05 16:56 | 35.84883 | -5.62753 | 36038 ft | 503 kts | 62° |
| 2026-05-05 16:56 | 35.88060 | -5.55061 | 36041 ft | 503 kts | 62° |
| 2026-05-05 16:57 | 35.91154 | -5.47316 | 36046 ft | 503 kts | 62° |
| 2026-05-05 16:57 | 35.94286 | -5.39590 | 36051 ft | 503 kts | 62° |
| 2026-05-05 16:58 | 35.97394 | -5.31839 | 36057 ft | 503 kts | 62° |
| 2026-05-05 16:58 | 36.00505 | -5.24104 | 36049 ft | 502 kts | 60° |
| 2026-05-05 16:59 | 36.03707 | -5.16505 | 36043 ft | 502 kts | 62° |
| 2026-05-05 16:59 | 36.06897 | -5.08830 | 36024 ft | 502 kts | 61° |
| 2026-05-05 17:00 | 36.10129 | -5.01151 | 36027 ft | 503 kts | 62° |
| 2026-05-05 17:00 | 36.13320 | -4.93456 | 36020 ft | 503 kts | 61° |
| 2026-05-05 17:01 | 36.17292 | -4.86428 | 36027 ft | 499 kts | 43° |
| 2026-05-05 17:01 | 36.22096 | -4.80262 | 36014 ft | 500 kts | 43° |
| 2026-05-05 17:02 | 36.26902 | -4.74047 | 36007 ft | 499 kts | 43° |
| 2026-05-05 17:02 | 36.31708 | -4.67832 | 36009 ft | 499 kts | 43° |
| 2026-05-05 17:03 | 36.36511 | -4.61608 | 36002 ft | 500 kts | 43° |
| 2026-05-05 17:03 | 36.41319 | -4.55360 | 35992 ft | 500 kts | 43° |
| 2026-05-05 17:04 | 36.46143 | -4.49089 | 35997 ft | 503 kts | 43° |
| 2026-05-05 17:04 | 36.50965 | -4.42797 | 35988 ft | 502 kts | 43° |
| 2026-05-05 17:05 | 36.55757 | -4.36542 | 35982 ft | 502 kts | 43° |
| 2026-05-05 17:05 | 36.60576 | -4.30234 | 35975 ft | 503 kts | 43° |
| 2026-05-05 17:06 | 36.65394 | -4.23917 | 35976 ft | 503 kts | 43° |
| 2026-05-05 17:06 | 36.70230 | -4.17564 | 35976 ft | 505 kts | 43° |
| 2026-05-05 17:07 | 36.75063 | -4.11201 | 35977 ft | 505 kts | 43° |
| 2026-05-05 17:07 | 36.79863 | -4.04871 | 35980 ft | 504 kts | 43° |
| 2026-05-05 17:08 | 36.84692 | -3.98490 | 35976 ft | 505 kts | 43° |
| 2026-05-05 17:08 | 36.89518 | -3.92099 | 35990 ft | 506 kts | 43° |
| 2026-05-05 17:09 | 36.94336 | -3.85707 | 35979 ft | 508 kts | 43° |
| 2026-05-05 17:09 | 36.99203 | -3.79237 | 35992 ft | 509 kts | 43° |
| 2026-05-05 17:10 | 37.04059 | -3.72768 | 36011 ft | 510 kts | 43° |
| 2026-05-05 17:10 | 37.08918 | -3.66285 | 36019 ft | 510 kts | 43° |
| 2026-05-05 17:11 | 37.13808 | -3.59947 | 36021 ft | 508 kts | 42° |
| 2026-05-05 17:11 | 37.18691 | -3.53535 | 36049 ft | 508 kts | 42° |
| 2026-05-05 17:12 | 37.23665 | -3.47168 | 36020 ft | 513 kts | 42° |
| 2026-05-05 17:12 | 37.28601 | -3.40734 | 35991 ft | 510 kts | 42° |
| 2026-05-05 17:13 | 37.33556 | -3.34320 | 35993 ft | 512 kts | 42° |
| 2026-05-05 17:13 | 37.38505 | -3.27872 | 35999 ft | 512 kts | 42° |
| 2026-05-05 17:14 | 37.43450 | -3.21427 | 36033 ft | 512 kts | 42° |
| 2026-05-05 17:14 | 37.48414 | -3.14946 | 35997 ft | 515 kts | 42° |
| 2026-05-05 17:15 | 37.53356 | -3.08473 | 36000 ft | 515 kts | 42° |
| 2026-05-05 17:15 | 37.58317 | -3.01968 | 35988 ft | 514 kts | 43° |
| 2026-05-05 17:16 | 37.63272 | -2.95456 | 35990 ft | 514 kts | 43° |
| 2026-05-05 17:16 | 37.68227 | -2.88934 | 36032 ft | 515 kts | 43° |
| 2026-05-05 17:17 | 37.73210 | -2.82359 | 35993 ft | 518 kts | 43° |
| 2026-05-05 17:17 | 37.78180 | -2.75787 | 36000 ft | 516 kts | 43° |
| 2026-05-05 17:18 | 37.83126 | -2.69235 | 35992 ft | 515 kts | 43° |
| 2026-05-05 17:18 | 37.88082 | -2.62657 | 36013 ft | 518 kts | 43° |
| 2026-05-05 17:19 | 37.93046 | -2.56050 | 36030 ft | 517 kts | 43° |
| 2026-05-05 17:19 | 37.98001 | -2.49446 | 36009 ft | 516 kts | 43° |
| 2026-05-05 17:20 | 38.02927 | -2.42865 | 35996 ft | 518 kts | 43° |
| 2026-05-05 17:20 | 38.07883 | -2.36230 | 36003 ft | 517 kts | 43° |
| 2026-05-05 17:21 | 38.12827 | -2.29598 | 36004 ft | 516 kts | 43° |
| 2026-05-05 17:22 | 38.20237 | -2.19627 | 35997 ft | 519 kts | 44° |
| 2026-05-05 17:22 | 38.24788 | -2.12469 | 35994 ft | 523 kts | 49° |
| 2026-05-05 17:23 | 38.29277 | -2.05177 | 35988 ft | 521 kts | 49° |
| 2026-05-05 17:23 | 38.33770 | -1.97938 | 35981 ft | 522 kts | 49° |
| 2026-05-05 17:24 | 38.38149 | -1.90806 | 35947 ft | 510 kts | 49° |
| 2026-05-05 17:24 | 38.42592 | -1.83608 | 35989 ft | 523 kts | 50° |
| 2026-05-05 17:25 | 38.47063 | -1.76302 | 35984 ft | 520 kts | 50° |
| 2026-05-05 17:25 | 38.51523 | -1.69032 | 35991 ft | 521 kts | 50° |
| 2026-05-05 17:26 | 38.55998 | -1.61700 | 35987 ft | 523 kts | 50° |
| 2026-05-05 17:26 | 38.60434 | -1.54425 | 35981 ft | 521 kts | 50° |
| 2026-05-05 17:27 | 38.64883 | -1.47109 | 36002 ft | 522 kts | 50° |
| 2026-05-05 17:27 | 38.69343 | -1.39759 | 35988 ft | 522 kts | 50° |
| 2026-05-05 17:28 | 38.73789 | -1.32416 | 35983 ft | 521 kts | 50° |
| 2026-05-05 17:28 | 38.78231 | -1.25069 | 35986 ft | 521 kts | 50° |
| 2026-05-05 17:29 | 38.82670 | -1.17707 | 35977 ft | 521 kts | 50° |
| 2026-05-05 17:29 | 38.86355 | -1.11582 | 35965 ft | 522 kts | 50° |
| 2026-05-05 17:30 | 38.90810 | -1.04165 | 35967 ft | 526 kts | 50° |
| 2026-05-05 17:30 | 38.95257 | -0.96740 | 35961 ft | 524 kts | 50° |
| 2026-05-05 17:31 | 38.99705 | -0.89302 | 35951 ft | 525 kts | 50° |
| 2026-05-05 17:31 | 39.04154 | -0.81840 | 35951 ft | 525 kts | 50° |
| 2026-05-05 17:32 | 39.08995 | -0.74973 | 35940 ft | 518 kts | 36° |
| 2026-05-05 17:32 | 39.14568 | -0.69066 | 35943 ft | 520 kts | 35° |
| 2026-05-05 17:33 | 39.20134 | -0.63122 | 35945 ft | 519 kts | 36° |
| 2026-05-05 17:33 | 39.25707 | -0.57168 | 35928 ft | 520 kts | 36° |
| 2026-05-05 17:34 | 39.31383 | -0.51422 | 35926 ft | 518 kts | 32° |
| 2026-05-05 17:34 | 39.37143 | -0.45808 | 35926 ft | 519 kts | 32° |
| 2026-05-05 17:35 | 39.42908 | -0.40206 | 35917 ft | 517 kts | 32° |
| 2026-05-05 17:35 | 39.48660 | -0.34594 | 35917 ft | 518 kts | 32° |
| 2026-05-05 17:36 | 39.54407 | -0.28977 | 35920 ft | 518 kts | 32° |
| 2026-05-05 17:36 | 39.60164 | -0.23339 | 35914 ft | 519 kts | 33° |
| 2026-05-05 17:37 | 39.65934 | -0.17673 | 35934 ft | 521 kts | 33° |
| 2026-05-05 17:37 | 39.71701 | -0.12001 | 35930 ft | 520 kts | 33° |
| 2026-05-05 17:38 | 39.77432 | -0.06352 | 35946 ft | 520 kts | 33° |
| 2026-05-05 17:38 | 39.83169 | -0.00606 | 35933 ft | 523 kts | 39° |
| 2026-05-05 17:39 | 39.88253 | 0.06264 | 35944 ft | 530 kts | 45° |
| 2026-05-05 17:39 | 39.93267 | 0.13268 | 35947 ft | 526 kts | 44° |
| 2026-05-05 17:40 | 39.98288 | 0.20237 | 35946 ft | 528 kts | 44° |
| 2026-05-05 17:40 | 40.03275 | 0.27220 | 35987 ft | 528 kts | 44° |
| 2026-05-05 17:41 | 40.08301 | 0.34229 | 35941 ft | 527 kts | 45° |
| 2026-05-05 17:41 | 40.13297 | 0.41240 | 35933 ft | 528 kts | 45° |
| 2026-05-05 17:42 | 40.18302 | 0.48263 | 35936 ft | 529 kts | 45° |
| 2026-05-05 17:42 | 40.23323 | 0.55336 | 35933 ft | 528 kts | 45° |
| 2026-05-05 17:43 | 40.28323 | 0.62389 | 35936 ft | 528 kts | 45° |
| 2026-05-05 17:43 | 40.33279 | 0.69408 | 35932 ft | 527 kts | 45° |
| 2026-05-05 17:44 | 40.38294 | 0.76518 | 35908 ft | 528 kts | 45° |
| 2026-05-05 17:44 | 40.43260 | 0.83579 | 35930 ft | 532 kts | 45° |
| 2026-05-05 17:45 | 40.48257 | 0.90702 | 35937 ft | 529 kts | 45° |
| 2026-05-05 17:45 | 40.53250 | 0.97833 | 35931 ft | 529 kts | 45° |
| 2026-05-05 17:46 | 40.58227 | 1.04963 | 35932 ft | 530 kts | 46° |
| 2026-05-05 17:46 | 40.63206 | 1.12125 | 35931 ft | 530 kts | 46° |
| 2026-05-05 17:47 | 40.68191 | 1.19303 | 35918 ft | 531 kts | 46° |
| 2026-05-05 17:47 | 40.73146 | 1.26458 | 35922 ft | 532 kts | 46° |
| 2026-05-05 17:48 | 40.78139 | 1.33671 | 35919 ft | 531 kts | 46° |
| 2026-05-05 17:48 | 40.83109 | 1.40875 | 35920 ft | 531 kts | 46° |
| 2026-05-05 17:49 | 40.88080 | 1.48094 | 35920 ft | 531 kts | 46° |
| 2026-05-05 17:49 | 40.93047 | 1.55334 | 35923 ft | 530 kts | 46° |
| 2026-05-05 17:50 | 40.98007 | 1.62576 | 35921 ft | 532 kts | 46° |
| 2026-05-05 17:50 | 41.02974 | 1.69849 | 35923 ft | 532 kts | 46° |
| 2026-05-05 17:51 | 41.07929 | 1.77121 | 35923 ft | 531 kts | 46° |
| 2026-05-05 17:51 | 41.12884 | 1.84407 | 35929 ft | 532 kts | 46° |
| 2026-05-05 17:52 | 41.17820 | 1.91685 | 35910 ft | 529 kts | 46° |
| 2026-05-05 17:52 | 41.22761 | 1.98985 | 35940 ft | 532 kts | 46° |
| 2026-05-05 17:53 | 41.27696 | 2.06299 | 35939 ft | 531 kts | 46° |
| 2026-05-05 17:53 | 41.31957 | 2.14331 | 35962 ft | 532 kts | 65° |
| 2026-05-05 17:54 | 41.35049 | 2.23217 | 35933 ft | 527 kts | 67° |
| 2026-05-05 17:54 | 41.38105 | 2.32045 | 35933 ft | 532 kts | 66° |
| 2026-05-05 17:55 | 41.41212 | 2.41006 | 35929 ft | 530 kts | 66° |
| 2026-05-05 17:55 | 41.44285 | 2.49942 | 35927 ft | 531 kts | 66° |
| 2026-05-05 17:56 | 41.47365 | 2.58890 | 35929 ft | 531 kts | 67° |
| 2026-05-05 17:56 | 41.50433 | 2.67860 | 35889 ft | 531 kts | 67° |
| 2026-05-05 17:57 | 41.53473 | 2.76756 | 35949 ft | 530 kts | 67° |
| 2026-05-05 17:57 | 41.56520 | 2.85713 | 35925 ft | 529 kts | 67° |
| 2026-05-05 17:58 | 41.59556 | 2.94661 | 35927 ft | 529 kts | 67° |
| 2026-05-05 17:58 | 41.62586 | 3.03626 | 35927 ft | 529 kts | 67° |
| 2026-05-05 17:59 | 41.65610 | 3.12597 | 35923 ft | 529 kts | 67° |
| 2026-05-05 17:59 | 41.68633 | 3.21596 | 35926 ft | 529 kts | 68° |
| 2026-05-05 18:00 | 41.71640 | 3.30579 | 35925 ft | 529 kts | 68° |
| 2026-05-05 18:00 | 41.74640 | 3.39569 | 35925 ft | 529 kts | 68° |
| 2026-05-05 18:01 | 41.77635 | 3.48570 | 35925 ft | 529 kts | 68° |
| 2026-05-05 18:01 | 41.80618 | 3.57567 | 35925 ft | 528 kts | 68° |
| 2026-05-05 18:02 | 41.83578 | 3.66523 | 35925 ft | 528 kts | 68° |
| 2026-05-05 18:02 | 41.86548 | 3.75538 | 35926 ft | 529 kts | 68° |
| 2026-05-05 18:03 | 41.89514 | 3.84570 | 35927 ft | 529 kts | 68° |
| 2026-05-05 18:03 | 41.92481 | 3.93638 | 35960 ft | 531 kts | 68° |
| 2026-05-05 18:04 | 41.95441 | 4.02713 | 35928 ft | 528 kts | 68° |
| 2026-05-05 18:04 | 41.98386 | 4.11782 | 35932 ft | 530 kts | 68° |
| 2026-05-05 18:05 | 42.01315 | 4.20822 | 35912 ft | 530 kts | 68° |
| 2026-05-05 18:05 | 42.04251 | 4.29922 | 35931 ft | 530 kts | 68° |
| 2026-05-05 18:06 | 42.07311 | 4.38952 | 35941 ft | 532 kts | 59° |
| 2026-05-05 18:06 | 42.12097 | 4.46471 | 35964 ft | 530 kts | 40° |
| 2026-05-05 18:07 | 42.17587 | 4.53044 | 35943 ft | 527 kts | 39° |
| 2026-05-05 18:07 | 42.23059 | 4.59651 | 35940 ft | 528 kts | 39° |
| 2026-05-05 18:08 | 42.28547 | 4.66284 | 35938 ft | 529 kts | 39° |
| 2026-05-05 18:08 | 42.34026 | 4.72918 | 35939 ft | 528 kts | 40° |
| 2026-05-05 18:09 | 42.39441 | 4.79500 | 35936 ft | 527 kts | 39° |
| 2026-05-05 18:09 | 42.44932 | 4.86180 | 35941 ft | 528 kts | 40° |
| 2026-05-05 18:10 | 42.50359 | 4.92809 | 35945 ft | 528 kts | 40° |
| 2026-05-05 18:10 | 42.55696 | 4.99562 | 35942 ft | 523 kts | 49° |
| 2026-05-05 18:11 | 42.59875 | 5.07759 | 35948 ft | 528 kts | 58° |
| 2026-05-05 18:11 | 42.63822 | 5.16117 | 35949 ft | 527 kts | 57° |
| 2026-05-05 18:12 | 42.67822 | 5.24490 | 35951 ft | 528 kts | 57° |
| 2026-05-05 18:12 | 42.71784 | 5.32887 | 35945 ft | 528 kts | 58° |
| 2026-05-05 18:13 | 42.75733 | 5.41229 | 35937 ft | 529 kts | 57° |
| 2026-05-05 18:13 | 42.79701 | 5.49665 | 35938 ft | 529 kts | 58° |
| 2026-05-05 18:14 | 42.83671 | 5.58114 | 35938 ft | 529 kts | 58° |
| 2026-05-05 18:14 | 42.87623 | 5.66556 | 35942 ft | 528 kts | 58° |
| 2026-05-05 18:15 | 42.91481 | 5.74817 | 35935 ft | 514 kts | 58° |
| 2026-05-05 18:15 | 42.94714 | 5.81758 | 35945 ft | 526 kts | 58° |
| 2026-05-05 18:16 | 42.98647 | 5.90224 | 35947 ft | 526 kts | 58° |
| 2026-05-05 18:16 | 43.02559 | 5.98671 | 35949 ft | 526 kts | 58° |
| 2026-05-05 18:17 | 43.06471 | 6.07140 | 35948 ft | 527 kts | 58° |
| 2026-05-05 18:17 | 43.10369 | 6.15604 | 35934 ft | 524 kts | 58° |
| 2026-05-05 18:18 | 43.14259 | 6.24073 | 35937 ft | 526 kts | 58° |
| 2026-05-05 18:18 | 43.18144 | 6.32557 | 35938 ft | 525 kts | 58° |
| 2026-05-05 18:19 | 43.22013 | 6.41032 | 35917 ft | 525 kts | 58° |
| 2026-05-05 18:19 | 43.25880 | 6.49525 | 35920 ft | 525 kts | 58° |
| 2026-05-05 18:20 | 43.29704 | 6.57947 | 35945 ft | 522 kts | 58° |
| 2026-05-05 18:20 | 43.33543 | 6.66427 | 35949 ft | 523 kts | 58° |
| 2026-05-05 18:21 | 43.37379 | 6.74926 | 35957 ft | 524 kts | 58° |
| 2026-05-05 18:21 | 43.41218 | 6.83457 | 35968 ft | 524 kts | 58° |
| 2026-05-05 18:22 | 43.45046 | 6.91987 | 35963 ft | 520 kts | 58° |
| 2026-05-05 18:22 | 43.48839 | 7.00466 | 35963 ft | 523 kts | 58° |
| 2026-05-05 18:23 | 43.52638 | 7.08979 | 35957 ft | 520 kts | 58° |
| 2026-05-05 18:23 | 43.56419 | 7.17481 | 35963 ft | 521 kts | 58° |
| 2026-05-05 18:24 | 43.60210 | 7.26028 | 35992 ft | 522 kts | 58° |
| 2026-05-05 18:24 | 43.63940 | 7.34461 | 35966 ft | 515 kts | 59° |
| 2026-05-05 18:25 | 43.67691 | 7.42970 | 35968 ft | 518 kts | 59° |
| 2026-05-05 18:25 | 43.71429 | 7.51471 | 35951 ft | 517 kts | 59° |
| 2026-05-05 18:26 | 43.75172 | 7.60011 | 35931 ft | 519 kts | 59° |
| 2026-05-05 18:26 | 43.78901 | 7.68542 | 35954 ft | 516 kts | 59° |
| 2026-05-05 18:27 | 43.82871 | 7.76762 | 35974 ft | 514 kts | 46° |
| 2026-05-05 18:27 | 43.87912 | 7.83809 | 35959 ft | 511 kts | 43° |
| 2026-05-05 18:28 | 43.95439 | 7.94276 | 35977 ft | 514 kts | 44° |
| 2026-05-05 18:28 | 43.97945 | 7.97772 | 35932 ft | 503 kts | 44° |
| 2026-05-05 18:28 | 44.00394 | 8.01175 | 35958 ft | 497 kts | 43° |
| 2026-05-05 18:29 | 44.05319 | 8.08064 | 35976 ft | 507 kts | 44° |
| 2026-05-05 18:29 | 44.10270 | 8.15011 | 35966 ft | 503 kts | 44° |
| 2026-05-05 18:30 | 44.15222 | 8.21967 | 35973 ft | 504 kts | 44° |
| 2026-05-05 18:30 | 44.20117 | 8.28871 | 35969 ft | 504 kts | 44° |
| 2026-05-05 18:31 | 44.25053 | 8.35840 | 35948 ft | 501 kts | 44° |
| 2026-05-05 18:31 | 44.29925 | 8.42743 | 35952 ft | 505 kts | 44° |
| 2026-05-05 18:32 | 44.34854 | 8.49740 | 35965 ft | 505 kts | 44° |
| 2026-05-05 18:32 | 44.39779 | 8.56754 | 35966 ft | 504 kts | 44° |
| 2026-05-05 18:33 | 44.44688 | 8.63759 | 35965 ft | 504 kts | 45° |
| 2026-05-05 18:33 | 44.49595 | 8.70782 | 35966 ft | 504 kts | 44° |
| 2026-05-05 18:34 | 44.54495 | 8.77810 | 35963 ft | 504 kts | 44° |
| 2026-05-05 18:34 | 44.59390 | 8.84851 | 35961 ft | 504 kts | 44° |
| 2026-05-05 18:35 | 44.64281 | 8.91903 | 35957 ft | 504 kts | 44° |
| 2026-05-05 18:35 | 44.69148 | 8.98941 | 35959 ft | 499 kts | 45° |
| 2026-05-05 18:36 | 44.74013 | 9.05990 | 35964 ft | 504 kts | 45° |
| 2026-05-05 18:36 | 44.78835 | 9.13000 | 35957 ft | 500 kts | 45° |
| 2026-05-05 18:37 | 44.83661 | 9.20029 | 35954 ft | 495 kts | 45° |
| 2026-05-05 18:37 | 44.88465 | 9.27046 | 35961 ft | 499 kts | 45° |
| 2026-05-05 18:38 | 44.93277 | 9.34092 | 35962 ft | 497 kts | 45° |
| 2026-05-05 18:38 | 44.98069 | 9.41127 | 35963 ft | 497 kts | 45° |
| 2026-05-05 18:39 | 45.02872 | 9.48196 | 35964 ft | 497 kts | 45° |
| 2026-05-05 18:39 | 45.07651 | 9.55249 | 35962 ft | 497 kts | 45° |
| 2026-05-05 18:40 | 45.12399 | 9.62274 | 35962 ft | 497 kts | 45° |
| 2026-05-05 18:40 | 45.17172 | 9.69354 | 35967 ft | 496 kts | 45° |
| 2026-05-05 18:41 | 45.21909 | 9.76433 | 35966 ft | 493 kts | 46° |
| 2026-05-05 18:41 | 45.26580 | 9.83597 | 35969 ft | 494 kts | 46° |
| 2026-05-05 18:42 | 45.31281 | 9.90727 | 35972 ft | 494 kts | 46° |
| 2026-05-05 18:42 | 45.35956 | 9.97889 | 35972 ft | 494 kts | 46° |
| 2026-05-05 18:43 | 45.40624 | 10.05034 | 35971 ft | 493 kts | 46° |
| 2026-05-05 18:43 | 45.45263 | 10.12162 | 35972 ft | 493 kts | 46° |
| 2026-05-05 18:44 | 45.49920 | 10.19335 | 35963 ft | 492 kts | 46° |
| 2026-05-05 18:44 | 45.54568 | 10.26512 | 35967 ft | 492 kts | 46° |
| 2026-05-05 18:45 | 45.59207 | 10.33696 | 35987 ft | 492 kts | 46° |
| 2026-05-05 18:45 | 45.63852 | 10.40904 | 35987 ft | 493 kts | 46° |
| 2026-05-05 18:46 | 45.68487 | 10.48120 | 35983 ft | 492 kts | 46° |
| 2026-05-05 18:46 | 45.73106 | 10.55328 | 35979 ft | 491 kts | 46° |
| 2026-05-05 18:47 | 45.77721 | 10.62549 | 35983 ft | 491 kts | 47° |
| 2026-05-05 18:47 | 45.82328 | 10.69776 | 35994 ft | 490 kts | 46° |
| 2026-05-05 18:48 | 45.86907 | 10.76978 | 35999 ft | 489 kts | 46° |
| 2026-05-05 18:48 | 45.91474 | 10.84182 | 35975 ft | 486 kts | 47° |
| 2026-05-05 18:49 | 45.96041 | 10.91403 | 35984 ft | 489 kts | 47° |
| 2026-05-05 18:49 | 46.00594 | 10.98621 | 35988 ft | 487 kts | 47° |
| 2026-05-05 18:50 | 46.05117 | 11.05811 | 36013 ft | 488 kts | 47° |
| 2026-05-05 18:50 | 46.09662 | 11.13055 | 36025 ft | 486 kts | 47° |
| 2026-05-05 18:51 | 46.14199 | 11.20306 | 36014 ft | 487 kts | 47° |
| 2026-05-05 18:51 | 46.18726 | 11.27560 | 35971 ft | 485 kts | 47° |
| 2026-05-05 18:52 | 46.23234 | 11.34801 | 35975 ft | 485 kts | 47° |
| 2026-05-05 18:52 | 46.27736 | 11.42055 | 35971 ft | 485 kts | 47° |
| 2026-05-05 18:53 | 46.32241 | 11.49331 | 35969 ft | 485 kts | 47° |
| 2026-05-05 18:53 | 46.36738 | 11.56614 | 35984 ft | 485 kts | 47° |
| 2026-05-05 18:54 | 46.41232 | 11.63911 | 35972 ft | 486 kts | 47° |
| 2026-05-05 18:54 | 46.45728 | 11.71231 | 35969 ft | 486 kts | 47° |
| 2026-05-05 18:55 | 46.50224 | 11.78572 | 35970 ft | 486 kts | 47° |
| 2026-05-05 18:55 | 46.54710 | 11.85916 | 35971 ft | 486 kts | 47° |
| 2026-05-05 18:56 | 46.59191 | 11.93270 | 35980 ft | 485 kts | 47° |
| 2026-05-05 18:56 | 46.63625 | 12.00568 | 35974 ft | 485 kts | 47° |
| 2026-05-05 18:57 | 46.68083 | 12.07926 | 35961 ft | 485 kts | 47° |
| 2026-05-05 18:57 | 46.72549 | 12.15316 | 35960 ft | 484 kts | 47° |
| 2026-05-05 18:58 | 46.76996 | 12.22695 | 36026 ft | 484 kts | 48° |
| 2026-05-05 18:58 | 46.81518 | 12.29974 | 36022 ft | 482 kts | 44° |
| 2026-05-05 18:59 | 46.86232 | 12.36887 | 35992 ft | 478 kts | 44° |
| 2026-05-05 18:59 | 46.90935 | 12.43825 | 35971 ft | 481 kts | 44° |
| 2026-05-05 19:00 | 46.95610 | 12.50723 | 35944 ft | 479 kts | 44° |
| 2026-05-05 19:00 | 46.99502 | 12.56490 | 35928 ft | 478 kts | 44° |
| 2026-05-05 19:01 | 47.04183 | 12.63434 | 35902 ft | 479 kts | 44° |
| 2026-05-05 19:01 | 47.08858 | 12.70393 | 35901 ft | 479 kts | 44° |
| 2026-05-05 19:02 | 47.13542 | 12.77381 | 35884 ft | 481 kts | 45° |
| 2026-05-05 19:02 | 47.18223 | 12.84385 | 35866 ft | 480 kts | 45° |
| 2026-05-05 19:03 | 47.22902 | 12.91404 | 35844 ft | 479 kts | 45° |
| 2026-05-05 19:03 | 47.27538 | 12.98377 | 35851 ft | 475 kts | 44° |
| 2026-05-05 19:04 | 47.32159 | 13.05346 | 35824 ft | 475 kts | 45° |
| 2026-05-05 19:04 | 47.36764 | 13.12309 | 35823 ft | 475 kts | 45° |
| 2026-05-05 19:05 | 47.41380 | 13.19308 | 35804 ft | 475 kts | 45° |
| 2026-05-05 19:05 | 47.45969 | 13.26283 | 35796 ft | 475 kts | 45° |
| 2026-05-05 19:06 | 47.50572 | 13.33300 | 35794 ft | 475 kts | 45° |
| 2026-05-05 19:06 | 47.55163 | 13.40316 | 35776 ft | 474 kts | 45° |
| 2026-05-05 19:07 | 47.59746 | 13.47341 | 35776 ft | 475 kts | 45° |
| 2026-05-05 19:07 | 47.64342 | 13.54403 | 35770 ft | 476 kts | 45° |
| 2026-05-05 19:08 | 47.68937 | 13.61482 | 35762 ft | 476 kts | 45° |
| 2026-05-05 19:08 | 47.73525 | 13.68570 | 35756 ft | 475 kts | 45° |
| 2026-05-05 19:09 | 47.78096 | 13.75652 | 35745 ft | 474 kts | 45° |
| 2026-05-05 19:09 | 47.82630 | 13.82694 | 35746 ft | 474 kts | 46° |
| 2026-05-05 19:10 | 47.87185 | 13.89789 | 35747 ft | 473 kts | 46° |
| 2026-05-05 19:10 | 47.91735 | 13.96895 | 35742 ft | 473 kts | 46° |
| 2026-05-05 19:11 | 47.96255 | 14.03973 | 35732 ft | 474 kts | 46° |
| 2026-05-05 19:11 | 48.00798 | 14.11108 | 35744 ft | 474 kts | 46° |
| 2026-05-05 19:12 | 48.05340 | 14.18260 | 35732 ft | 474 kts | 46° |
| 2026-05-05 19:12 | 48.09850 | 14.25381 | 35736 ft | 471 kts | 46° |
| 2026-05-05 19:13 | 48.14360 | 14.32521 | 35737 ft | 473 kts | 46° |
| 2026-05-05 19:13 | 48.18876 | 14.39691 | 35741 ft | 473 kts | 46° |
| 2026-05-05 19:14 | 48.23369 | 14.46844 | 35734 ft | 470 kts | 46° |
| 2026-05-05 19:14 | 48.27858 | 14.54009 | 35734 ft | 471 kts | 46° |
| 2026-05-05 19:15 | 48.32346 | 14.61194 | 35729 ft | 472 kts | 46° |
| 2026-05-05 19:15 | 48.36827 | 14.68386 | 35734 ft | 471 kts | 46° |
| 2026-05-05 19:16 | 48.41314 | 14.75608 | 35741 ft | 472 kts | 46° |
| 2026-05-05 19:16 | 48.45688 | 14.82669 | 35719 ft | 458 kts | 46° |
| 2026-05-05 19:17 | 48.50079 | 14.89773 | 35746 ft | 471 kts | 46° |
| 2026-05-05 19:17 | 48.54533 | 14.97004 | 35746 ft | 468 kts | 46° |
| 2026-05-05 19:18 | 48.58966 | 15.04251 | 35750 ft | 471 kts | 50° |
| 2026-05-05 19:18 | 48.63047 | 15.12011 | 35752 ft | 471 kts | 51° |
| 2026-05-05 19:19 | 48.67112 | 15.19761 | 35752 ft | 470 kts | 51° |
| 2026-05-05 19:19 | 48.71167 | 15.27528 | 35756 ft | 470 kts | 51° |
| 2026-05-05 19:20 | 48.75218 | 15.35307 | 35750 ft | 470 kts | 51° |
| 2026-05-05 19:20 | 48.79260 | 15.43091 | 35755 ft | 470 kts | 51° |
| 2026-05-05 19:21 | 48.83301 | 15.50896 | 35752 ft | 470 kts | 51° |
| 2026-05-05 19:21 | 48.87328 | 15.58696 | 35750 ft | 469 kts | 51° |
| 2026-05-05 19:22 | 48.91119 | 15.66688 | 35759 ft | 470 kts | 55° |
| 2026-05-05 19:22 | 48.94826 | 15.74866 | 35764 ft | 469 kts | 54° |
| 2026-05-05 19:23 | 48.98511 | 15.83060 | 35771 ft | 469 kts | 55° |
| 2026-05-05 19:23 | 49.02202 | 15.91275 | 35769 ft | 470 kts | 55° |
| 2026-05-05 19:24 | 49.05882 | 15.99497 | 35826 ft | 469 kts | 55° |
| 2026-05-05 19:24 | 49.09553 | 16.07723 | 35834 ft | 468 kts | 55° |
| 2026-05-05 19:25 | 49.13209 | 16.15938 | 35826 ft | 467 kts | 55° |
| 2026-05-05 19:25 | 49.16858 | 16.24166 | 35826 ft | 467 kts | 55° |
| 2026-05-05 19:26 | 49.20476 | 16.32347 | 35819 ft | 468 kts | 55° |
| 2026-05-05 19:26 | 49.24114 | 16.40600 | 35768 ft | 468 kts | 55° |
| 2026-05-05 19:27 | 49.27747 | 16.48866 | 35786 ft | 467 kts | 55° |
| 2026-05-05 19:27 | 49.31375 | 16.57147 | 35786 ft | 467 kts | 55° |
| 2026-05-05 19:28 | 49.34989 | 16.65421 | 35794 ft | 467 kts | 55° |
| 2026-05-05 19:28 | 49.38608 | 16.73733 | 35793 ft | 467 kts | 56° |
| 2026-05-05 19:29 | 49.42208 | 16.82029 | 35784 ft | 466 kts | 56° |
| 2026-05-05 19:29 | 49.43986 | 16.86134 | 35592 ft | 466 kts | 56° |
| 2026-05-05 19:29 | 49.45772 | 16.90264 | 35231 ft | 462 kts | 56° |
| 2026-05-05 19:30 | 49.47539 | 16.94358 | 34796 ft | 458 kts | 56° |
| 2026-05-05 19:30 | 49.49293 | 16.98427 | 34352 ft | 454 kts | 56° |
| 2026-05-05 19:30 | 49.51029 | 17.02460 | 33915 ft | 450 kts | 56° |
| 2026-05-05 19:30 | 49.52752 | 17.06470 | 33439 ft | 446 kts | 56° |
| 2026-05-05 19:31 | 49.54460 | 17.10448 | 32944 ft | 443 kts | 56° |
| 2026-05-05 19:31 | 49.56147 | 17.14388 | 32467 ft | 439 kts | 56° |
| 2026-05-05 19:31 | 49.57822 | 17.18301 | 31980 ft | 436 kts | 56° |
| 2026-05-05 19:31 | 49.59485 | 17.22194 | 31539 ft | 433 kts | 56° |
| 2026-05-05 19:32 | 49.61136 | 17.26065 | 31057 ft | 430 kts | 57° |
| 2026-05-05 19:32 | 49.62773 | 17.29907 | 30596 ft | 427 kts | 57° |
| 2026-05-05 19:32 | 49.64376 | 17.33676 | 30160 ft | 424 kts | 57° |
| 2026-05-05 19:32 | 49.65988 | 17.37473 | 29664 ft | 422 kts | 57° |
| 2026-05-05 19:33 | 49.67586 | 17.41241 | 29181 ft | 419 kts | 57° |
| 2026-05-05 19:33 | 49.69176 | 17.44994 | 28658 ft | 417 kts | 57° |
| 2026-05-05 19:33 | 49.70760 | 17.48741 | 28189 ft | 413 kts | 57° |
| 2026-05-05 19:33 | 49.72325 | 17.52446 | 27703 ft | 411 kts | 57° |
| 2026-05-05 19:34 | 49.73880 | 17.56133 | 27263 ft | 407 kts | 57° |
| 2026-05-05 19:34 | 49.75417 | 17.59783 | 26856 ft | 403 kts | 57° |
| 2026-05-05 19:34 | 49.76944 | 17.63413 | 26321 ft | 403 kts | 57° |
| 2026-05-05 19:35 | 49.79991 | 17.70673 | 25230 ft | 403 kts | 57° |
| 2026-05-05 19:35 | 49.81518 | 17.74318 | 24708 ft | 402 kts | 57° |
| 2026-05-05 19:35 | 49.82525 | 17.76725 | 24352 ft | 403 kts | 57° |
| 2026-05-05 19:35 | 49.84564 | 17.81606 | 23624 ft | 403 kts | 56° |
| 2026-05-05 19:36 | 49.86061 | 17.85196 | 23058 ft | 403 kts | 56° |
| 2026-05-05 19:36 | 49.87578 | 17.88835 | 22517 ft | 400 kts | 57° |
| 2026-05-05 19:36 | 49.89080 | 17.92448 | 21983 ft | 398 kts | 57° |
| 2026-05-05 19:36 | 49.90574 | 17.96043 | 21460 ft | 395 kts | 57° |
| 2026-05-05 19:37 | 49.92057 | 17.99619 | 20927 ft | 393 kts | 57° |
| 2026-05-05 19:37 | 49.93532 | 18.03177 | 20436 ft | 391 kts | 57° |
| 2026-05-05 19:37 | 49.95000 | 18.06726 | 19908 ft | 389 kts | 57° |
| 2026-05-05 19:37 | 49.96459 | 18.10257 | 19402 ft | 387 kts | 57° |
| 2026-05-05 19:38 | 49.97908 | 18.13771 | 18892 ft | 386 kts | 58° |
| 2026-05-05 19:38 | 49.99356 | 18.17284 | 18383 ft | 384 kts | 58° |
| 2026-05-05 19:38 | 50.00842 | 18.20719 | 17918 ft | 381 kts | 54° |
| 2026-05-05 19:38 | 50.02341 | 18.24036 | 17805 ft | 367 kts | 57° |
| 2026-05-05 19:39 | 50.03723 | 18.27282 | 17797 ft | 352 kts | 57° |
| 2026-05-05 19:39 | 50.05076 | 18.30376 | 17790 ft | 342 kts | 56° |
| 2026-05-05 19:39 | 50.06457 | 18.33447 | 17808 ft | 355 kts | 56° |
| 2026-05-05 19:39 | 50.07872 | 18.36616 | 17804 ft | 354 kts | 56° |
| 2026-05-05 19:40 | 50.09242 | 18.39730 | 17796 ft | 347 kts | 56° |
| 2026-05-05 19:40 | 50.10625 | 18.42878 | 17809 ft | 355 kts | 56° |
| 2026-05-05 19:40 | 50.12013 | 18.46022 | 17805 ft | 349 kts | 56° |
| 2026-05-05 19:40 | 50.13431 | 18.49082 | 17802 ft | 349 kts | 50° |
| 2026-05-05 19:41 | 50.15023 | 18.51943 | 17646 ft | 349 kts | 50° |
| 2026-05-05 19:41 | 50.16587 | 18.54792 | 17291 ft | 349 kts | 50° |
| 2026-05-05 19:41 | 50.18163 | 18.57661 | 16844 ft | 348 kts | 50° |
| 2026-05-05 19:41 | 50.19741 | 18.60514 | 16459 ft | 346 kts | 50° |
| 2026-05-05 19:42 | 50.21313 | 18.63358 | 16040 ft | 345 kts | 50° |
| 2026-05-05 19:42 | 50.22887 | 18.66183 | 15659 ft | 344 kts | 46° |
| 2026-05-05 19:42 | 50.24696 | 18.68609 | 15290 ft | 342 kts | 38° |
| 2026-05-05 19:42 | 50.26578 | 18.70870 | 14887 ft | 341 kts | 38° |
| 2026-05-05 19:43 | 50.28465 | 18.73123 | 14498 ft | 340 kts | 38° |
| 2026-05-05 19:43 | 50.30328 | 18.75395 | 14112 ft | 340 kts | 38° |
| 2026-05-05 19:43 | 50.32193 | 18.77686 | 13736 ft | 339 kts | 38° |
| 2026-05-05 19:43 | 50.34050 | 18.79954 | 13336 ft | 338 kts | 38° |
| 2026-05-05 19:44 | 50.35904 | 18.82212 | 12946 ft | 336 kts | 38° |
| 2026-05-05 19:44 | 50.37102 | 18.83732 | 12720 ft | 334 kts | 44° |
| 2026-05-05 19:44 | 50.38715 | 18.87700 | 12253 ft | 325 kts | 76° |
| 2026-05-05 19:44 | 50.38980 | 18.90027 | 12033 ft | 319 kts | 91° |
| 2026-05-05 19:45 | 50.38992 | 18.94596 | 11565 ft | 315 kts | 95° |
| 2026-05-05 19:45 | 50.38937 | 18.98020 | 11290 ft | 312 kts | 95° |
| 2026-05-05 19:45 | 50.38905 | 19.01387 | 11119 ft | 305 kts | 94° |
| 2026-05-05 19:45 | 50.38896 | 19.04677 | 10917 ft | 300 kts | 94° |
| 2026-05-05 19:46 | 50.38887 | 19.06889 | 10764 ft | 298 kts | 94° |
| 2026-05-05 19:46 | 50.38864 | 19.10114 | 10522 ft | 295 kts | 94° |
| 2026-05-05 19:46 | 50.38839 | 19.13321 | 10264 ft | 294 kts | 94° |
| 2026-05-05 19:46 | 50.38819 | 19.16481 | 9994 ft | 292 kts | 94° |
| 2026-05-05 19:47 | 50.38801 | 19.19659 | 9705 ft | 291 kts | 94° |
| 2026-05-05 19:47 | 50.38781 | 19.22828 | 9406 ft | 290 kts | 94° |
| 2026-05-05 19:47 | 50.38758 | 19.25981 | 9120 ft | 289 kts | 94° |
| 2026-05-05 19:47 | 50.38739 | 19.29120 | 8824 ft | 288 kts | 94° |
| 2026-05-05 19:48 | 50.38720 | 19.32253 | 8543 ft | 286 kts | 94° |
| 2026-05-05 19:48 | 50.38701 | 19.35356 | 8276 ft | 284 kts | 94° |
| 2026-05-05 19:48 | 50.38679 | 19.38447 | 8001 ft | 283 kts | 94° |
| 2026-05-05 19:48 | 50.38660 | 19.41528 | 7779 ft | 281 kts | 94° |
| 2026-05-05 19:49 | 50.38650 | 19.44554 | 7661 ft | 274 kts | 92° |
| 2026-05-05 19:49 | 50.39045 | 19.47442 | 7600 ft | 273 kts | 65° |
| 2026-05-05 19:49 | 50.40204 | 19.49757 | 7451 ft | 271 kts | 37° |
| 2026-05-05 19:49 | 50.41875 | 19.51025 | 7287 ft | 266 kts | 9° |
| 2026-05-05 19:50 | 50.43697 | 19.51244 | 7129 ft | 261 kts | 358° |
| 2026-05-05 19:50 | 50.45514 | 19.51259 | 6940 ft | 260 kts | 356° |
| 2026-05-05 19:50 | 50.47246 | 19.50725 | 6697 ft | 252 kts | 323° |
| 2026-05-05 19:50 | 50.48375 | 19.48780 | 6450 ft | 238 kts | 284° |
| 2026-05-05 19:51 | 50.48456 | 19.46312 | 6312 ft | 223 kts | 253° |
| 2026-05-05 19:51 | 50.48089 | 19.43972 | 6227 ft | 218 kts | 254° |
| 2026-05-05 19:51 | 50.47802 | 19.41660 | 6155 ft | 213 kts | 256° |
| 2026-05-05 19:51 | 50.47562 | 19.39388 | 6044 ft | 210 kts | 259° |
| 2026-05-05 19:52 | 50.47500 | 19.37201 | 5957 ft | 189 kts | 265° |
| 2026-05-05 19:52 | 50.47527 | 19.35230 | 5531 ft | 176 kts | 266° |
| 2026-05-05 19:52 | 50.47541 | 19.33357 | 4987 ft | 173 kts | 265° |
| 2026-05-05 19:52 | 50.47546 | 19.31496 | 4565 ft | 166 kts | 264° |
| 2026-05-05 19:53 | 50.47554 | 19.29744 | 4261 ft | 156 kts | 264° |
| 2026-05-05 19:53 | 50.47560 | 19.28082 | 3986 ft | 146 kts | 263° |
| 2026-05-05 19:53 | 50.47562 | 19.26602 | 3994 ft | 128 kts | 260° |
| 2026-05-05 19:53 | 50.47556 | 19.25091 | 4004 ft | 146 kts | 262° |
| 2026-05-05 19:54 | 50.47562 | 19.23571 | 3991 ft | 135 kts | 262° |
| 2026-05-05 19:54 | 50.47558 | 19.22013 | 3940 ft | 153 kts | 263° |
| 2026-05-05 19:54 | 50.47572 | 19.20303 | 3352 ft | 159 kts | 266° |
| 2026-05-05 19:54 | 50.47614 | 19.18566 | 2620 ft | 158 kts | 264° |
| 2026-05-05 19:55 | 50.47589 | 19.16868 | 1939 ft | 151 kts | 263° |
| 2026-05-05 19:55 | 50.47555 | 19.15362 | 1606 ft | 133 kts | 266° |
| 2026-05-05 19:55 | 50.47562 | 19.13798 | 1425 ft | 153 kts | 268° |
| 2026-05-05 19:55 | 50.47605 | 19.12111 | 1275 ft | 151 kts | 270° |
| 2026-05-05 19:56 | 50.47605 | 19.10588 | 1050 ft | 128 kts | 267° |
| 2026-05-05 19:56 | 50.47598 | 19.09320 | 1004 ft | 98 kts | 270° |
| 2026-05-05 19:56 | 50.47594 | 19.08412 | 998 ft | 70 kts | 268° |
| 2026-05-05 19:56 | 50.47601 | 19.07773 | 990 ft | 48 kts | 269° |
| 2026-05-05 19:57 | 50.47597 | 19.07343 | 993 ft | 32 kts | 267° |
| 2026-05-05 19:57 | 50.47557 | 19.07043 | 991 ft | 26 kts | 244° |
| 2026-05-05 19:57 | 50.47490 | 19.06857 | 991 ft | 15 kts | 239° |
| 2026-05-05 19:57 | 50.47441 | 19.06725 | 985 ft | 13 kts | 243° |
| 2026-05-05 19:58 | 50.47427 | 19.06602 | 985 ft | 11 kts | 268° |
| 2026-05-05 19:58 | 50.47431 | 19.06487 | 980 ft | 11 kts | 274° |
| 2026-05-05 19:58 | 50.47432 | 19.06357 | 988 ft | 12 kts | 267° |
| 2026-05-05 19:58 | 50.47405 | 19.06321 | 984 ft | 2 kts | 149° |
| 2026-05-05 19:59 | 50.47401 | 19.06336 | 978 ft | 2 kts | 105° |
| 2026-05-05 19:59 | 50.47405 | 19.06385 | 986 ft | 8 kts | 81° |
| 2026-05-05 19:59 | 50.47414 | 19.06506 | 986 ft | 12 kts | 89° |
| 2026-05-05 19:59 | 50.47397 | 19.06608 | 981 ft | 7 kts | 139° |
| 2026-05-05 20:00 | 50.47363 | 19.06625 | 982 ft | 4 kts | 175° |
| 2026-05-05 20:00 | 50.47336 | 19.06626 | 981 ft | 3 kts | 179° |
| 2026-05-05 20:00 | 50.47315 | 19.06627 | 990 ft | 3 kts | 179° |
| 2026-05-05 20:00 | 50.47281 | 19.06628 | 983 ft | 7 kts | 179° |
| 2026-05-05 20:01 | 50.47241 | 19.06658 | 984 ft | 5 kts | 117° |
| 2026-05-05 20:01 | 50.47236 | 19.06716 | 987 ft | 6 kts | 93° |
| 2026-05-05 20:01 | 50.47234 | 19.06801 | 989 ft | 9 kts | 90° |
| 2026-05-05 20:01 | 50.47234 | 19.06914 | 987 ft | 12 kts | 90° |
| 2026-05-05 20:02 | 50.47236 | 19.07053 | 990 ft | 14 kts | 89° |
| 2026-05-05 20:02 | 50.47238 | 19.07215 | 988 ft | 16 kts | 90° |
| 2026-05-05 20:02 | 50.47236 | 19.07397 | 993 ft | 18 kts | 91° |
| 2026-05-05 20:02 | 50.47233 | 19.07605 | 995 ft | 20 kts | 92° |
| 2026-05-05 20:03 | 50.47230 | 19.07821 | 997 ft | 20 kts | 91° |
| 2026-05-05 20:03 | 50.47225 | 19.08040 | 995 ft | 20 kts | 92° |
| 2026-05-05 20:03 | 50.47219 | 19.08232 | 994 ft | 9 kts | 107° |
| 2026-05-05 20:03 | 50.47184 | 19.08249 | 997 ft | 5 kts | 181° |
| 2026-05-05 20:04 | 50.47151 | 19.08248 | 994 ft | 5 kts | 181° |
| 2026-05-05 20:04 | 50.47144 | 19.08247 | 994 ft | 0 kts | 181° |